sensor_id;sensor_type;location;lat;lon;timestamp;temperature;humidity
15072;DHT22;7635;56.696;13.002;2023-09-19T00:02:02;17.10;99.90
15072;DHT22;7635;56.696;13.002;2023-09-19T00:04:31;17.00;99.90
15072;DHT22;7635;56.696;13.002;2023-09-19T00:06:58;17.00;99.90
15072;DHT22;7635;56.696;13.002;2023-09-19T00:09:24;17.00;99.90
15072;DHT22;7635;56.696;13.002;2023-09-19T00:11:52;16.90;99.90
15072;DHT22;7635;56.696;13.002;2023-09-19T00:14:19;16.90;99.90
15072;DHT22;7635;56.696;13.002;2023-09-19T00:16:49;16.80;99.90
15072;DHT22;7635;56.696;13.002;2023-09-19T00:19:18;16.80;99.90
15072;DHT22;7635;56.696;13.002;2023-09-19T00:21:44;16.70;99.90
15072;DHT22;7635;56.696;13.002;2023-09-19T00:24:12;16.70;99.90
15072;DHT22;7635;56.696;13.002;2023-09-19T00:26:39;16.70;99.90
15072;DHT22;7635;56.696;13.002;2023-09-19T00:29:06;16.60;99.90
15072;DHT22;7635;56.696;13.002;2023-09-19T00:31:34;16.60;99.90
15072;DHT22;7635;56.696;13.002;2023-09-19T00:34:03;16.60;99.90
15072;DHT22;7635;56.696;13.002;2023-09-19T00:36:36;16.60;99.90
15072;DHT22;7635;56.696;13.002;2023-09-19T00:39:05;16.50;99.90
15072;DHT22;7635;56.696;13.002;2023-09-19T00:41:31;16.50;99.90
15072;DHT22;7635;56.696;13.002;2023-09-19T00:44:01;16.50;99.90
15072;DHT22;7635;56.696;13.002;2023-09-19T00:46:30;16.40;99.90
15072;DHT22;7635;56.696;13.002;2023-09-19T00:48:58;16.50;99.90
15072;DHT22;7635;56.696;13.002;2023-09-19T00:51:25;16.40;99.90
15072;DHT22;7635;56.696;13.002;2023-09-19T00:53:54;16.40;99.90
15072;DHT22;7635;56.696;13.002;2023-09-19T00:56:21;16.40;99.90
15072;DHT22;7635;56.696;13.002;2023-09-19T00:58:48;16.40;99.90
15072;DHT22;7635;56.696;13.002;2023-09-19T01:01:15;16.40;99.90
15072;DHT22;7635;56.696;13.002;2023-09-19T01:03:42;16.30;99.90
15072;DHT22;7635;56.696;13.002;2023-09-19T01:06:10;16.30;99.90
15072;DHT22;7635;56.696;13.002;2023-09-19T01:08:37;16.30;99.90
15072;DHT22;7635;56.696;13.002;2023-09-19T01:11:11;16.30;99.90
15072;DHT22;7635;56.696;13.002;2023-09-19T01:13:48;16.30;99.90
15072;DHT22;7635;56.696;13.002;2023-09-19T01:16:26;16.30;99.90
15072;DHT22;7635;56.696;13.002;2023-09-19T01:19:05;16.40;99.90
15072;DHT22;7635;56.696;13.002;2023-09-19T01:21:37;16.50;99.90
15072;DHT22;7635;56.696;13.002;2023-09-19T01:24:46;16.60;99.90
15072;DHT22;7635;56.696;13.002;2023-09-19T01:27:36;16.70;99.90
15072;DHT22;7635;56.696;13.002;2023-09-19T01:30:09;16.80;99.90
15072;DHT22;7635;56.696;13.002;2023-09-19T01:32:37;16.80;99.90
15072;DHT22;7635;56.696;13.002;2023-09-19T01:35:05;16.90;99.90
15072;DHT22;7635;56.696;13.002;2023-09-19T01:37:32;16.90;99.90
15072;DHT22;7635;56.696;13.002;2023-09-19T01:40:01;16.90;99.90
15072;DHT22;7635;56.696;13.002;2023-09-19T01:42:45;16.90;99.90
15072;DHT22;7635;56.696;13.002;2023-09-19T01:45:21;16.90;99.90
15072;DHT22;7635;56.696;13.002;2023-09-19T01:47:51;16.90;99.90
15072;DHT22;7635;56.696;13.002;2023-09-19T01:50:27;17.00;99.90
15072;DHT22;7635;56.696;13.002;2023-09-19T01:52:59;17.00;99.90
15072;DHT22;7635;56.696;13.002;2023-09-19T01:55:30;17.00;99.90
15072;DHT22;7635;56.696;13.002;2023-09-19T01:58:06;17.00;99.90
15072;DHT22;7635;56.696;13.002;2023-09-19T02:00:37;17.00;99.90
15072;DHT22;7635;56.696;13.002;2023-09-19T02:03:08;17.00;99.90
15072;DHT22;7635;56.696;13.002;2023-09-19T02:05:35;17.00;99.90
15072;DHT22;7635;56.696;13.002;2023-09-19T02:08:02;17.00;99.90
15072;DHT22;7635;56.696;13.002;2023-09-19T02:10:29;17.00;99.90
15072;DHT22;7635;56.696;13.002;2023-09-19T02:12:56;17.00;99.90
15072;DHT22;7635;56.696;13.002;2023-09-19T02:15:23;17.00;99.90
15072;DHT22;7635;56.696;13.002;2023-09-19T02:17:51;17.00;99.90
15072;DHT22;7635;56.696;13.002;2023-09-19T02:20:18;17.00;99.90
15072;DHT22;7635;56.696;13.002;2023-09-19T02:22:46;17.00;99.90
15072;DHT22;7635;56.696;13.002;2023-09-19T02:25:15;16.90;99.90
15072;DHT22;7635;56.696;13.002;2023-09-19T02:27:42;17.00;99.90
15072;DHT22;7635;56.696;13.002;2023-09-19T02:30:10;17.00;99.90
15072;DHT22;7635;56.696;13.002;2023-09-19T02:32:37;16.90;99.90
15072;DHT22;7635;56.696;13.002;2023-09-19T02:35:07;17.00;99.90
15072;DHT22;7635;56.696;13.002;2023-09-19T02:37:36;17.00;99.90
15072;DHT22;7635;56.696;13.002;2023-09-19T02:40:03;17.00;99.90
15072;DHT22;7635;56.696;13.002;2023-09-19T02:42:44;16.90;99.90
15072;DHT22;7635;56.696;13.002;2023-09-19T02:45:15;17.00;99.90
15072;DHT22;7635;56.696;13.002;2023-09-19T02:47:43;17.00;99.90
15072;DHT22;7635;56.696;13.002;2023-09-19T02:50:11;17.00;99.90
15072;DHT22;7635;56.696;13.002;2023-09-19T02:52:40;17.00;99.90
15072;DHT22;7635;56.696;13.002;2023-09-19T02:55:09;17.00;99.90
15072;DHT22;7635;56.696;13.002;2023-09-19T02:57:36;17.00;99.90
15072;DHT22;7635;56.696;13.002;2023-09-19T03:00:07;17.10;99.90
15072;DHT22;7635;56.696;13.002;2023-09-19T03:02:35;17.10;99.90
15072;DHT22;7635;56.696;13.002;2023-09-19T03:05:04;17.10;99.90
15072;DHT22;7635;56.696;13.002;2023-09-19T03:07:32;17.10;99.90
15072;DHT22;7635;56.696;13.002;2023-09-19T03:09:59;17.10;99.90
15072;DHT22;7635;56.696;13.002;2023-09-19T03:12:26;17.20;99.90
15072;DHT22;7635;56.696;13.002;2023-09-19T03:14:52;17.20;99.90
15072;DHT22;7635;56.696;13.002;2023-09-19T03:17:19;17.20;99.90
15072;DHT22;7635;56.696;13.002;2023-09-19T03:19:46;17.20;99.90
15072;DHT22;7635;56.696;13.002;2023-09-19T03:22:13;17.20;99.90
15072;DHT22;7635;56.696;13.002;2023-09-19T03:24:41;17.20;99.90
15072;DHT22;7635;56.696;13.002;2023-09-19T03:27:09;17.20;99.90
15072;DHT22;7635;56.696;13.002;2023-09-19T03:29:35;17.20;99.90
15072;DHT22;7635;56.696;13.002;2023-09-19T03:32:03;17.20;99.90
15072;DHT22;7635;56.696;13.002;2023-09-19T03:34:30;17.20;99.90
15072;DHT22;7635;56.696;13.002;2023-09-19T03:36:57;17.20;99.90
15072;DHT22;7635;56.696;13.002;2023-09-19T03:39:24;17.20;99.90
15072;DHT22;7635;56.696;13.002;2023-09-19T03:41:52;17.20;99.90
15072;DHT22;7635;56.696;13.002;2023-09-19T03:44:18;17.20;99.90
15072;DHT22;7635;56.696;13.002;2023-09-19T03:46:45;17.10;99.90
15072;DHT22;7635;56.696;13.002;2023-09-19T03:49:12;17.10;99.90
15072;DHT22;7635;56.696;13.002;2023-09-19T03:51:38;17.10;99.90
15072;DHT22;7635;56.696;13.002;2023-09-19T03:54:06;17.00;99.90
15072;DHT22;7635;56.696;13.002;2023-09-19T03:56:34;17.00;99.90
15072;DHT22;7635;56.696;13.002;2023-09-19T03:59:02;17.00;99.90
15072;DHT22;7635;56.696;13.002;2023-09-19T04:01:29;16.90;99.90
15072;DHT22;7635;56.696;13.002;2023-09-19T04:03:57;16.90;99.90
15072;DHT22;7635;56.696;13.002;2023-09-19T04:06:24;16.90;99.90
15072;DHT22;7635;56.696;13.002;2023-09-19T04:08:52;16.90;99.90
15072;DHT22;7635;56.696;13.002;2023-09-19T04:11:20;16.80;99.90
15072;DHT22;7635;56.696;13.002;2023-09-19T04:13:46;16.80;99.90
15072;DHT22;7635;56.696;13.002;2023-09-19T04:16:15;16.80;99.90
15072;DHT22;7635;56.696;13.002;2023-09-19T04:18:43;16.80;99.90
15072;DHT22;7635;56.696;13.002;2023-09-19T04:21:10;16.80;99.90
15072;DHT22;7635;56.696;13.002;2023-09-19T04:23:37;16.80;99.90
15072;DHT22;7635;56.696;13.002;2023-09-19T04:26:03;16.80;99.90
15072;DHT22;7635;56.696;13.002;2023-09-19T04:28:31;16.80;99.90
15072;DHT22;7635;56.696;13.002;2023-09-19T04:30:59;16.80;99.90
15072;DHT22;7635;56.696;13.002;2023-09-19T04:33:27;16.80;99.90
15072;DHT22;7635;56.696;13.002;2023-09-19T04:35:54;16.70;99.90
15072;DHT22;7635;56.696;13.002;2023-09-19T04:38:21;16.70;99.90
15072;DHT22;7635;56.696;13.002;2023-09-19T04:40:49;16.70;99.90
15072;DHT22;7635;56.696;13.002;2023-09-19T04:43:15;16.80;99.90
15072;DHT22;7635;56.696;13.002;2023-09-19T04:45:42;16.80;99.90
15072;DHT22;7635;56.696;13.002;2023-09-19T04:48:09;16.80;99.90
15072;DHT22;7635;56.696;13.002;2023-09-19T04:50:37;16.80;99.90
15072;DHT22;7635;56.696;13.002;2023-09-19T04:53:04;16.80;99.90
15072;DHT22;7635;56.696;13.002;2023-09-19T04:55:32;16.80;99.90
15072;DHT22;7635;56.696;13.002;2023-09-19T04:57:59;16.70;99.90
15072;DHT22;7635;56.696;13.002;2023-09-19T05:00:26;16.60;99.90
15072;DHT22;7635;56.696;13.002;2023-09-19T05:02:56;16.50;99.90
15072;DHT22;7635;56.696;13.002;2023-09-19T05:05:23;16.50;99.90
15072;DHT22;7635;56.696;13.002;2023-09-19T05:07:52;16.40;99.90
15072;DHT22;7635;56.696;13.002;2023-09-19T05:10:19;16.40;99.90
15072;DHT22;7635;56.696;13.002;2023-09-19T05:12:47;16.30;99.90
15072;DHT22;7635;56.696;13.002;2023-09-19T05:15:17;16.30;99.90
15072;DHT22;7635;56.696;13.002;2023-09-19T05:17:47;16.30;99.90
15072;DHT22;7635;56.696;13.002;2023-09-19T05:20:15;16.20;99.90
15072;DHT22;7635;56.696;13.002;2023-09-19T05:22:51;16.20;99.90
15072;DHT22;7635;56.696;13.002;2023-09-19T05:25:23;16.10;99.90
15072;DHT22;7635;56.696;13.002;2023-09-19T05:27:53;16.00;99.90
15072;DHT22;7635;56.696;13.002;2023-09-19T05:30:19;16.10;99.90
15072;DHT22;7635;56.696;13.002;2023-09-19T05:32:47;16.00;99.90
15072;DHT22;7635;56.696;13.002;2023-09-19T05:35:14;16.00;99.90
15072;DHT22;7635;56.696;13.002;2023-09-19T05:37:41;16.00;99.90
15072;DHT22;7635;56.696;13.002;2023-09-19T05:40:10;16.00;99.90
15072;DHT22;7635;56.696;13.002;2023-09-19T05:42:38;16.00;99.90
15072;DHT22;7635;56.696;13.002;2023-09-19T05:45:07;16.00;99.90
15072;DHT22;7635;56.696;13.002;2023-09-19T05:47:37;16.00;99.90
15072;DHT22;7635;56.696;13.002;2023-09-19T05:50:04;15.90;99.90
15072;DHT22;7635;56.696;13.002;2023-09-19T05:52:33;15.90;99.90
15072;DHT22;7635;56.696;13.002;2023-09-19T05:55:00;15.80;99.90
15072;DHT22;7635;56.696;13.002;2023-09-19T05:57:28;15.80;99.90
15072;DHT22;7635;56.696;13.002;2023-09-19T05:59:56;15.80;99.90
15072;DHT22;7635;56.696;13.002;2023-09-19T06:02:22;15.80;99.90
15072;DHT22;7635;56.696;13.002;2023-09-19T06:04:49;15.90;99.90
15072;DHT22;7635;56.696;13.002;2023-09-19T06:07:18;15.90;99.90
15072;DHT22;7635;56.696;13.002;2023-09-19T06:09:45;15.90;99.90
15072;DHT22;7635;56.696;13.002;2023-09-19T06:12:11;15.90;99.90
15072;DHT22;7635;56.696;13.002;2023-09-19T06:14:44;16.00;99.90
15072;DHT22;7635;56.696;13.002;2023-09-19T06:17:10;16.10;99.90
15072;DHT22;7635;56.696;13.002;2023-09-19T06:19:37;16.10;99.90
15072;DHT22;7635;56.696;13.002;2023-09-19T06:22:04;16.10;99.90
15072;DHT22;7635;56.696;13.002;2023-09-19T06:24:31;16.10;99.90
15072;DHT22;7635;56.696;13.002;2023-09-19T06:26:57;16.20;99.90
15072;DHT22;7635;56.696;13.002;2023-09-19T06:29:27;16.30;99.90
15072;DHT22;7635;56.696;13.002;2023-09-19T06:31:55;16.30;99.90
15072;DHT22;7635;56.696;13.002;2023-09-19T06:34:22;16.40;99.90
15072;DHT22;7635;56.696;13.002;2023-09-19T06:36:48;16.50;99.90
15072;DHT22;7635;56.696;13.002;2023-09-19T06:39:15;16.50;99.90
15072;DHT22;7635;56.696;13.002;2023-09-19T06:41:42;16.50;99.90
15072;DHT22;7635;56.696;13.002;2023-09-19T06:44:09;16.50;99.90
15072;DHT22;7635;56.696;13.002;2023-09-19T06:46:36;16.60;99.90
15072;DHT22;7635;56.696;13.002;2023-09-19T06:49:07;16.70;99.90
15072;DHT22;7635;56.696;13.002;2023-09-19T06:51:36;16.70;99.90
15072;DHT22;7635;56.696;13.002;2023-09-19T06:54:03;16.70;99.90
15072;DHT22;7635;56.696;13.002;2023-09-19T06:56:30;17.00;99.90
15072;DHT22;7635;56.696;13.002;2023-09-19T06:58:58;17.10;99.90
15072;DHT22;7635;56.696;13.002;2023-09-19T07:01:25;17.10;99.90
15072;DHT22;7635;56.696;13.002;2023-09-19T07:03:51;17.00;99.90
15072;DHT22;7635;56.696;13.002;2023-09-19T07:06:20;16.90;99.90
15072;DHT22;7635;56.696;13.002;2023-09-19T07:08:46;16.80;99.90
15072;DHT22;7635;56.696;13.002;2023-09-19T07:11:15;16.80;99.90
15072;DHT22;7635;56.696;13.002;2023-09-19T07:13:42;16.70;99.90
15072;DHT22;7635;56.696;13.002;2023-09-19T07:16:09;16.70;99.90
15072;DHT22;7635;56.696;13.002;2023-09-19T07:18:52;16.80;99.90
15072;DHT22;7635;56.696;13.002;2023-09-19T07:21:20;17.00;99.90
15072;DHT22;7635;56.696;13.002;2023-09-19T07:23:47;17.20;99.90
15072;DHT22;7635;56.696;13.002;2023-09-19T07:26:15;17.10;99.90
15072;DHT22;7635;56.696;13.002;2023-09-19T07:28:41;16.90;99.90
15072;DHT22;7635;56.696;13.002;2023-09-19T07:31:08;16.80;99.90
15072;DHT22;7635;56.696;13.002;2023-09-19T07:33:35;16.60;99.90
15072;DHT22;7635;56.696;13.002;2023-09-19T07:36:02;16.50;99.90
15072;DHT22;7635;56.696;13.002;2023-09-19T07:38:30;16.40;99.90
15072;DHT22;7635;56.696;13.002;2023-09-19T07:41:00;16.40;99.90
15072;DHT22;7635;56.696;13.002;2023-09-19T07:43:27;16.40;99.90
15072;DHT22;7635;56.696;13.002;2023-09-19T07:45:54;16.30;99.90
15072;DHT22;7635;56.696;13.002;2023-09-19T07:48:21;16.30;99.90
15072;DHT22;7635;56.696;13.002;2023-09-19T07:50:49;16.30;99.90
15072;DHT22;7635;56.696;13.002;2023-09-19T07:53:16;16.20;99.90
15072;DHT22;7635;56.696;13.002;2023-09-19T07:55:44;16.30;99.90
15072;DHT22;7635;56.696;13.002;2023-09-19T07:58:13;16.30;99.90
15072;DHT22;7635;56.696;13.002;2023-09-19T08:00:41;16.40;99.90
15072;DHT22;7635;56.696;13.002;2023-09-19T08:03:08;16.30;99.90
15072;DHT22;7635;56.696;13.002;2023-09-19T08:05:40;16.20;99.90
15072;DHT22;7635;56.696;13.002;2023-09-19T08:08:08;15.90;99.90
15072;DHT22;7635;56.696;13.002;2023-09-19T08:10:36;15.70;99.90
15072;DHT22;7635;56.696;13.002;2023-09-19T08:13:06;15.50;99.90
15072;DHT22;7635;56.696;13.002;2023-09-19T08:15:43;15.30;99.90
15072;DHT22;7635;56.696;13.002;2023-09-19T08:18:10;15.20;99.90
15072;DHT22;7635;56.696;13.002;2023-09-19T08:20:37;15.10;99.90
15072;DHT22;7635;56.696;13.002;2023-09-19T08:23:05;15.00;99.90
15072;DHT22;7635;56.696;13.002;2023-09-19T08:25:33;15.00;99.90
15072;DHT22;7635;56.696;13.002;2023-09-19T08:28:00;14.90;99.90
15072;DHT22;7635;56.696;13.002;2023-09-19T08:30:30;14.80;99.90
15072;DHT22;7635;56.696;13.002;2023-09-19T08:32:57;14.80;99.90
15072;DHT22;7635;56.696;13.002;2023-09-19T08:35:24;14.80;99.90
15072;DHT22;7635;56.696;13.002;2023-09-19T08:37:51;14.80;99.90
15072;DHT22;7635;56.696;13.002;2023-09-19T08:40:18;14.80;99.90
15072;DHT22;7635;56.696;13.002;2023-09-19T08:42:49;14.80;99.90
15072;DHT22;7635;56.696;13.002;2023-09-19T08:45:16;14.80;99.90
15072;DHT22;7635;56.696;13.002;2023-09-19T08:47:50;14.80;99.90
15072;DHT22;7635;56.696;13.002;2023-09-19T08:50:23;14.80;99.90
15072;DHT22;7635;56.696;13.002;2023-09-19T08:52:55;14.80;99.90
15072;DHT22;7635;56.696;13.002;2023-09-19T08:55:27;14.80;99.90
15072;DHT22;7635;56.696;13.002;2023-09-19T08:57:59;14.80;99.90
15072;DHT22;7635;56.696;13.002;2023-09-19T09:00:28;14.90;99.90
15072;DHT22;7635;56.696;13.002;2023-09-19T09:02:57;14.90;99.90
15072;DHT22;7635;56.696;13.002;2023-09-19T09:05:26;15.00;99.90
15072;DHT22;7635;56.696;13.002;2023-09-19T09:07:54;15.00;99.90
15072;DHT22;7635;56.696;13.002;2023-09-19T09:10:22;15.00;99.90
15072;DHT22;7635;56.696;13.002;2023-09-19T09:12:49;15.00;99.90
15072;DHT22;7635;56.696;13.002;2023-09-19T09:15:19;15.00;99.90
15072;DHT22;7635;56.696;13.002;2023-09-19T09:17:49;15.10;99.90
15072;DHT22;7635;56.696;13.002;2023-09-19T09:20:17;15.10;99.90
15072;DHT22;7635;56.696;13.002;2023-09-19T09:22:54;15.10;99.90
15072;DHT22;7635;56.696;13.002;2023-09-19T09:25:21;15.20;99.90
15072;DHT22;7635;56.696;13.002;2023-09-19T09:27:59;15.20;99.90
15072;DHT22;7635;56.696;13.002;2023-09-19T09:30:34;15.30;99.90
15072;DHT22;7635;56.696;13.002;2023-09-19T09:33:10;15.30;99.90
15072;DHT22;7635;56.696;13.002;2023-09-19T09:35:47;15.40;99.90
15072;DHT22;7635;56.696;13.002;2023-09-19T09:38:18;15.30;99.90
15072;DHT22;7635;56.696;13.002;2023-09-19T09:40:49;15.40;99.90
15072;DHT22;7635;56.696;13.002;2023-09-19T09:43:30;15.50;99.90
15072;DHT22;7635;56.696;13.002;2023-09-19T09:46:14;15.50;99.90
15072;DHT22;7635;56.696;13.002;2023-09-19T09:49:00;15.60;99.90
15072;DHT22;7635;56.696;13.002;2023-09-19T09:51:59;15.60;99.90
15072;DHT22;7635;56.696;13.002;2023-09-19T09:54:31;15.70;99.90
15072;DHT22;7635;56.696;13.002;2023-09-19T09:57:03;15.70;99.90
15072;DHT22;7635;56.696;13.002;2023-09-19T10:00:00;15.70;99.90
15072;DHT22;7635;56.696;13.002;2023-09-19T10:02:45;15.70;99.90
15072;DHT22;7635;56.696;13.002;2023-09-19T10:05:13;15.70;99.90
15072;DHT22;7635;56.696;13.002;2023-09-19T10:07:48;15.70;99.90
15072;DHT22;7635;56.696;13.002;2023-09-19T10:10:29;15.80;99.90
15072;DHT22;7635;56.696;13.002;2023-09-19T10:13:06;15.80;99.90
15072;DHT22;7635;56.696;13.002;2023-09-19T10:15:34;16.00;99.90
15072;DHT22;7635;56.696;13.002;2023-09-19T10:18:04;16.30;99.90
15072;DHT22;7635;56.696;13.002;2023-09-19T10:20:33;16.20;99.90
15072;DHT22;7635;56.696;13.002;2023-09-19T10:23:08;16.20;99.90
15072;DHT22;7635;56.696;13.002;2023-09-19T10:25:37;16.30;99.90
15072;DHT22;7635;56.696;13.002;2023-09-19T10:28:06;16.20;99.90
15072;DHT22;7635;56.696;13.002;2023-09-19T10:30:37;16.00;99.90
15072;DHT22;7635;56.696;13.002;2023-09-19T10:33:09;15.90;99.90
15072;DHT22;7635;56.696;13.002;2023-09-19T10:35:39;15.80;99.90
15072;DHT22;7635;56.696;13.002;2023-09-19T10:38:10;15.90;99.90
15072;DHT22;7635;56.696;13.002;2023-09-19T10:40:38;15.90;99.90
15072;DHT22;7635;56.696;13.002;2023-09-19T10:43:12;15.80;99.90
15072;DHT22;7635;56.696;13.002;2023-09-19T10:45:41;15.80;99.90
15072;DHT22;7635;56.696;13.002;2023-09-19T10:48:10;15.70;99.90
15072;DHT22;7635;56.696;13.002;2023-09-19T10:50:43;15.90;99.90
15072;DHT22;7635;56.696;13.002;2023-09-19T10:53:13;16.00;99.90
15072;DHT22;7635;56.696;13.002;2023-09-19T10:55:41;16.00;99.90
15072;DHT22;7635;56.696;13.002;2023-09-19T10:58:25;16.00;99.90
15072;DHT22;7635;56.696;13.002;2023-09-19T11:00:54;15.90;99.90
15072;DHT22;7635;56.696;13.002;2023-09-19T11:03:22;15.80;99.90
15072;DHT22;7635;56.696;13.002;2023-09-19T11:06:03;15.80;99.90
15072;DHT22;7635;56.696;13.002;2023-09-19T11:08:56;15.70;99.90
15072;DHT22;7635;56.696;13.002;2023-09-19T11:11:43;15.60;99.90
15072;DHT22;7635;56.696;13.002;2023-09-19T11:14:16;15.60;99.90
15072;DHT22;7635;56.696;13.002;2023-09-19T11:20:24;15.50;99.90
15072;DHT22;7635;56.696;13.002;2023-09-19T11:23:23;15.50;99.90
15072;DHT22;7635;56.696;13.002;2023-09-19T11:25:53;15.40;99.90
15072;DHT22;7635;56.696;13.002;2023-09-19T11:28:31;15.50;99.90
15072;DHT22;7635;56.696;13.002;2023-09-19T11:30:58;15.70;99.90
15072;DHT22;7635;56.696;13.002;2023-09-19T11:33:25;16.00;99.90
15072;DHT22;7635;56.696;13.002;2023-09-19T11:36:03;16.20;99.90
15072;DHT22;7635;56.696;13.002;2023-09-19T11:38:59;16.40;99.90
15072;DHT22;7635;56.696;13.002;2023-09-19T11:41:38;16.70;99.90
15072;DHT22;7635;56.696;13.002;2023-09-19T11:44:33;16.70;99.90
15072;DHT22;7635;56.696;13.002;2023-09-19T11:47:02;16.50;99.90
15072;DHT22;7635;56.696;13.002;2023-09-19T11:49:31;16.30;99.90
15072;DHT22;7635;56.696;13.002;2023-09-19T11:52:00;16.30;99.90
15072;DHT22;7635;56.696;13.002;2023-09-19T11:54:30;16.10;99.90
15072;DHT22;7635;56.696;13.002;2023-09-19T11:57:00;16.00;99.90
15072;DHT22;7635;56.696;13.002;2023-09-19T11:59:28;15.80;99.90
15072;DHT22;7635;56.696;13.002;2023-09-19T12:01:55;15.70;99.90
15072;DHT22;7635;56.696;13.002;2023-09-19T12:04:39;15.60;99.90
15072;DHT22;7635;56.696;13.002;2023-09-19T12:07:07;15.40;99.90
15072;DHT22;7635;56.696;13.002;2023-09-19T12:09:39;15.30;99.90
15072;DHT22;7635;56.696;13.002;2023-09-19T12:12:10;15.20;99.90
15072;DHT22;7635;56.696;13.002;2023-09-19T12:14:47;15.20;99.90
15072;DHT22;7635;56.696;13.002;2023-09-19T12:17:14;15.20;99.90
15072;DHT22;7635;56.696;13.002;2023-09-19T12:19:49;15.20;99.90
15072;DHT22;7635;56.696;13.002;2023-09-19T12:22:16;15.20;99.90
15072;DHT22;7635;56.696;13.002;2023-09-19T12:24:45;15.10;99.90
15072;DHT22;7635;56.696;13.002;2023-09-19T12:27:13;15.10;99.90
15072;DHT22;7635;56.696;13.002;2023-09-19T12:29:44;15.10;99.90
15072;DHT22;7635;56.696;13.002;2023-09-19T12:32:11;15.10;99.90
15072;DHT22;7635;56.696;13.002;2023-09-19T12:34:39;15.10;99.90
15072;DHT22;7635;56.696;13.002;2023-09-19T12:37:09;15.10;99.90
15072;DHT22;7635;56.696;13.002;2023-09-19T12:39:43;15.20;99.90
15072;DHT22;7635;56.696;13.002;2023-09-19T12:42:16;15.20;99.90
15072;DHT22;7635;56.696;13.002;2023-09-19T12:44:44;15.40;99.90
15072;DHT22;7635;56.696;13.002;2023-09-19T12:47:13;15.50;99.90
15072;DHT22;7635;56.696;13.002;2023-09-19T12:50:09;15.60;99.90
15072;DHT22;7635;56.696;13.002;2023-09-19T12:52:45;15.60;99.90
15072;DHT22;7635;56.696;13.002;2023-09-19T12:55:21;15.60;99.90
15072;DHT22;7635;56.696;13.002;2023-09-19T12:58:11;15.60;99.90
15072;DHT22;7635;56.696;13.002;2023-09-19T13:00:39;15.50;99.90
15072;DHT22;7635;56.696;13.002;2023-09-19T13:03:15;15.60;99.90
15072;DHT22;7635;56.696;13.002;2023-09-19T13:05:48;15.60;99.90
15072;DHT22;7635;56.696;13.002;2023-09-19T13:08:24;15.60;99.90
15072;DHT22;7635;56.696;13.002;2023-09-19T13:11:07;15.60;99.90
15072;DHT22;7635;56.696;13.002;2023-09-19T13:13:39;15.60;99.90
15072;DHT22;7635;56.696;13.002;2023-09-19T13:16:07;15.50;99.90
15072;DHT22;7635;56.696;13.002;2023-09-19T13:18:47;15.50;99.90
15072;DHT22;7635;56.696;13.002;2023-09-19T13:21:17;15.40;99.90
15072;DHT22;7635;56.696;13.002;2023-09-19T13:23:51;15.30;99.90
15072;DHT22;7635;56.696;13.002;2023-09-19T13:26:18;15.20;99.90
15072;DHT22;7635;56.696;13.002;2023-09-19T13:28:47;15.10;99.90
15072;DHT22;7635;56.696;13.002;2023-09-19T13:31:15;15.10;99.90
15072;DHT22;7635;56.696;13.002;2023-09-19T13:33:45;15.10;99.90
15072;DHT22;7635;56.696;13.002;2023-09-19T13:36:12;15.10;99.90
15072;DHT22;7635;56.696;13.002;2023-09-19T13:38:39;15.10;99.90
15072;DHT22;7635;56.696;13.002;2023-09-19T13:41:08;15.10;99.90
15072;DHT22;7635;56.696;13.002;2023-09-19T13:43:35;15.10;99.90
15072;DHT22;7635;56.696;13.002;2023-09-19T13:46:04;15.20;99.90
15072;DHT22;7635;56.696;13.002;2023-09-19T13:48:30;15.20;99.90
15072;DHT22;7635;56.696;13.002;2023-09-19T13:51:01;15.20;99.90
15072;DHT22;7635;56.696;13.002;2023-09-19T13:53:28;15.30;99.90
15072;DHT22;7635;56.696;13.002;2023-09-19T13:55:55;15.30;99.90
15072;DHT22;7635;56.696;13.002;2023-09-19T13:58:21;15.30;99.90
15072;DHT22;7635;56.696;13.002;2023-09-19T14:00:49;15.30;99.90
15072;DHT22;7635;56.696;13.002;2023-09-19T14:03:17;15.30;99.90
15072;DHT22;7635;56.696;13.002;2023-09-19T14:05:46;15.30;99.90
15072;DHT22;7635;56.696;13.002;2023-09-19T14:08:14;15.30;99.90
15072;DHT22;7635;56.696;13.002;2023-09-19T14:10:41;15.30;99.90
15072;DHT22;7635;56.696;13.002;2023-09-19T14:13:07;15.20;99.90
15072;DHT22;7635;56.696;13.002;2023-09-19T14:15:36;15.20;99.90
15072;DHT22;7635;56.696;13.002;2023-09-19T14:18:04;15.20;99.90
15072;DHT22;7635;56.696;13.002;2023-09-19T14:20:32;15.20;99.90
15072;DHT22;7635;56.696;13.002;2023-09-19T14:22:58;15.20;99.90
15072;DHT22;7635;56.696;13.002;2023-09-19T14:25:25;15.20;99.90
15072;DHT22;7635;56.696;13.002;2023-09-19T14:27:52;15.20;99.90
15072;DHT22;7635;56.696;13.002;2023-09-19T14:30:19;15.20;99.90
15072;DHT22;7635;56.696;13.002;2023-09-19T14:32:46;15.20;99.90
15072;DHT22;7635;56.696;13.002;2023-09-19T14:35:13;15.30;99.90
15072;DHT22;7635;56.696;13.002;2023-09-19T14:37:41;15.30;99.90
15072;DHT22;7635;56.696;13.002;2023-09-19T14:40:09;15.20;99.90
15072;DHT22;7635;56.696;13.002;2023-09-19T14:42:38;15.30;99.90
15072;DHT22;7635;56.696;13.002;2023-09-19T14:45:06;15.20;99.90
15072;DHT22;7635;56.696;13.002;2023-09-19T14:47:33;15.20;99.90
15072;DHT22;7635;56.696;13.002;2023-09-19T14:50:00;15.20;99.90
15072;DHT22;7635;56.696;13.002;2023-09-19T14:52:27;15.20;99.90
15072;DHT22;7635;56.696;13.002;2023-09-19T14:54:56;15.20;99.90
15072;DHT22;7635;56.696;13.002;2023-09-19T14:57:22;15.10;99.90
15072;DHT22;7635;56.696;13.002;2023-09-19T14:59:50;15.10;99.90
15072;DHT22;7635;56.696;13.002;2023-09-19T15:02:17;15.10;99.90
15072;DHT22;7635;56.696;13.002;2023-09-19T15:04:44;15.00;99.90
15072;DHT22;7635;56.696;13.002;2023-09-19T15:07:12;14.90;99.90
15072;DHT22;7635;56.696;13.002;2023-09-19T15:09:40;14.90;99.90
15072;DHT22;7635;56.696;13.002;2023-09-19T15:12:08;14.80;99.90
15072;DHT22;7635;56.696;13.002;2023-09-19T15:14:35;14.70;99.90
15072;DHT22;7635;56.696;13.002;2023-09-19T15:17:02;14.60;99.90
15072;DHT22;7635;56.696;13.002;2023-09-19T15:19:30;14.60;99.90
15072;DHT22;7635;56.696;13.002;2023-09-19T15:21:57;14.50;99.90
15072;DHT22;7635;56.696;13.002;2023-09-19T15:24:24;14.40;99.90
15072;DHT22;7635;56.696;13.002;2023-09-19T15:26:52;14.40;99.90
15072;DHT22;7635;56.696;13.002;2023-09-19T15:29:22;14.30;99.90
15072;DHT22;7635;56.696;13.002;2023-09-19T15:31:49;14.20;99.90
15072;DHT22;7635;56.696;13.002;2023-09-19T15:34:15;14.20;99.90
15072;DHT22;7635;56.696;13.002;2023-09-19T15:36:42;14.20;99.90
15072;DHT22;7635;56.696;13.002;2023-09-19T15:39:09;14.20;99.90
15072;DHT22;7635;56.696;13.002;2023-09-19T15:41:39;14.10;99.90
15072;DHT22;7635;56.696;13.002;2023-09-19T15:44:11;14.20;99.90
15072;DHT22;7635;56.696;13.002;2023-09-19T15:46:40;14.20;99.90
15072;DHT22;7635;56.696;13.002;2023-09-19T15:49:06;14.20;99.90
15072;DHT22;7635;56.696;13.002;2023-09-19T15:51:34;14.20;99.90